Terminal Aerodrome Forecast
Issued by NWS Cleveland, OH

Home | Current Version | Previous Version | Graphics & Text | Print | Product List | Glossary On
Versions: 1 2 3 4 5 6 7 8 9 10 11 12 13 14 15 16 17 18 19 20 21 22 23 24 25 26 27
959
FTUS41 KCLE 210138 AAB
TAFERI
TAF AMD
KERI 210138Z 2102/2124 27006KT 1/2SM FG OVC002
     FM210800 18006KT 2SM BR OVC006
     FM211500 17010KT P6SM OVC025=

USA.gov is the U.S. government's official web portal to all federal, state and local government web resources and services.